Flight Track Log - Related Links

Times and Time Zones

All times are in EDT time to prevent confusion due to time zone crossing. See the CRQ675 flight status page for this flight to view local times or setup timezone preferences in your user account.

Time Position Orientation Groundspeed Altitude Reporting Facility
EDT Latitude Longitude Course Direction KTS MPH feet Rate Location/Type
Fri 12:35:00 PM 48.6274 -81.3613 10° North  Level Estimated
Fri 12:36:00 PM 48.6851 -81.3458 10° North  Level Estimated
Fri 12:37:00 PM 48.7428 -81.3303 10° North  Level Estimated
Fri 12:38:00 PM 48.8005 -81.3148 10° North  Level Estimated
Fri 12:39:00 PM 48.8582 -81.2992 10° North  Level Estimated
Fri 12:40:00 PM 48.9159 -81.2836 10° North  Level Estimated
Fri 12:41:00 PM 48.9735 -81.2680 10° North  Level Estimated
Fri 12:42:00 PM 49.0312 -81.2523 10° North  Level Estimated
Fri 12:43:00 PM 49.0889 -81.2366 10° North  Level Estimated
Fri 12:44:00 PM 49.1466 -81.2209 10° North  Level Estimated
Fri 12:45:00 PM 49.2042 -81.2051 10° North  Level Estimated
Fri 12:46:00 PM 49.2619 -81.1893 10° North  Level Estimated
Fri 12:47:00 PM 49.3196 -81.1735 10° North  Level Estimated
Fri 12:48:00 PM 49.3772 -81.1576 10° North  Level Estimated
Fri 12:49:00 PM 49.4349 -81.1417 10° North  Level Estimated
Fri 12:50:00 PM 49.4926 -81.1257 10° North  Level Estimated
Fri 12:51:00 PM 49.5502 -81.1097 10° North  Level Estimated
Fri 12:52:00 PM 49.6079 -81.0937 10° North  Level Estimated
Fri 12:53:00 PM 49.6655 -81.0776 10° North  Level Estimated
Fri 12:54:00 PM 49.7232 -81.0615 10° North  Level Estimated
Fri 12:55:00 PM 49.7808 -81.0453 10° North  Level Estimated
Fri 12:56:00 PM 49.8385 -81.0292 10° North  Level Estimated
Fri 12:57:00 PM 49.8961 -81.0129 10° North  Level Estimated
Fri 12:58:00 PM 49.9538 -80.9967 10° North  Level Estimated
Fri 12:59:00 PM 50.0114 -80.9803 10° North  Level Estimated
Fri 01:00:00 PM 50.0691 -80.9640 10° North  Level Estimated
Fri 01:01:00 PM 50.1267 -80.9476 10° North  Level Estimated
Fri 01:02:00 PM 50.1843 -80.9312 10° North  Level Estimated
Fri 01:03:00 PM 50.2420 -80.9147 10° North  Level Estimated
Fri 01:04:00 PM 50.2996 -80.8982 10° North  Level Estimated
Fri 01:05:00 PM 50.3572 -80.8817 10° North  Level Estimated
Fri 01:06:00 PM 50.4148 -80.8651 10° North  Level Estimated
Fri 01:07:00 PM 50.4725 -80.8485 10° North  Level Estimated
Fri 01:08:00 PM 50.5301 -80.8318 10° North  Level Estimated
Fri 01:09:00 PM 50.5877 -80.8151 10° North  Level Estimated
Fri 01:10:00 PM 50.6453 -80.7984 10° North  Level Estimated
Fri 01:11:00 PM 50.7029 -80.7816 10° North  Level Estimated
Fri 01:12:00 PM 50.7606 -80.7648 10° North  Level Estimated
Fri 01:13:00 PM 50.8182 -80.7479 10° North  Level Estimated
Fri 01:14:00 PM 50.8758 -80.7310 10° North  Level Estimated
Fri 01:15:00 PM 50.9334 -80.7140 11° North  Level Estimated
Fri 01:16:00 PM 50.9910 -80.6970 11° North  Level Estimated
Fri 01:17:00 PM 51.0486 -80.6800 11° North  Level Estimated
Fri 01:18:00 PM 51.1062 -80.6629 11° North  Level Estimated
Fri 01:19:00 PM 51.1638 -80.6458 11° North  Level Estimated
Fri 01:20:00 PM 51.2214 -80.6286 11° North  Level Estimated
Fri 01:21:00 PM 51.2789 -80.6114 11° North  Level Estimated
Fri 01:22:00 PM 51.2911 -80.6078 11° North  Level Estimated
Fri 01:23:00 PM 51.2911 -80.6078 51° Northeast  Level Estimated
Fri 01:24:00 PM 51.2911 -80.6078 51° Northeast  Level Estimated
Fri 01:25:00 PM 51.2911 -80.6078 51° Northeast  Level Estimated
Fri 01:26:00 PM 51.2911 -80.6078 51° Northeast  Level Estimated
Fri 01:27:00 PM 51.2911 -80.6078 51° Northeast  Level Estimated
Fri 01:28:00 PM 51.2911 -80.6078 51° Northeast  Level Estimated
Fri 01:29:00 PM 51.2911 -80.6078 51° Northeast  Level Estimated
Fri 01:30:00 PM 51.2911 -80.6078 51° Northeast  Level Estimated
Fri 01:31:00 PM 51.2911 -80.6078 51° Northeast  Level Estimated
Fri 01:32:00 PM 51.2911 -80.6078 51° Northeast  Level Estimated
Fri 01:33:00 PM 51.2911 -80.6078 51° Northeast  Level Estimated
Fri 01:34:00 PM 51.2911 -80.6078 51° Northeast  Level Estimated
Fri 01:35:00 PM 51.2911 -80.6078 51° Northeast  Level Estimated
Fri 01:36:00 PM 51.2911 -80.6078 51° Northeast  Level Estimated
Fri 01:37:00 PM 51.2911 -80.6078 51° Northeast  Level Estimated

Login

Don't have an account? Register now (free) for customized features, flight alerts, and more!